Darstellungsparameter: Aktuell verwendete Einstellungen:
Skalierung der Graphiken ... ?
xyx+y,   Skalierungsfaktor:      Skalierung: Modus: x, Faktor: 1
Darstellungszeitraum ... ?
Vom - - bis: - -   Zeitraum: 22.04.2009 - 24.04.2009
Min/Max/Avg-Anzeige ... ?
Zeige MMA aktuell
Zeige MMA Monat
Zeige MMA alles
Zeige --A aktuell
Zeige --A Monat
Zeige --A alles
Keine MMA-Anzeige
MMA:
Average (ber die Originaldaten)
MMA-Basis: 22.04.2009 - 24.04.2009
Quicknavigation für Darstellung... ?
Tage:      1T, 2T, 3T, 5T -1T -2T -3T -5T +1T +2T +3T +5T
Wochen: 1W, 2W, 3W -1W -2W -3W +1W +2W +3W
Monate: 1M, 3M, 6M -1M -3M -6M +1M +3M +6M
Jahre:    1J, 3J, 5J, 10J -1J -3J -5J -10J +1J +3J +5J +10J
Nutze für die Darstellung ... ?
Originaldaten oder Mittelwerte auf ...
Stundenbasis Tagesbasis Wochenbasis
Monatsbasis Jahresbasis      Datenbasis: Original-Daten
Darstellen als:
Statistik (Auto) Statistik J:M      Darstellung:
Zur Graphik,    zurück zur Übersicht aller Sensoren.
 
Tabellarische Datenbersicht: ?
 
Sensor: Nr:Datum:Temp:Abs-Feuchte:Windchill:Wind:
Aussen-T/F 1 22-04-2009 00:06:46 14.8 C 5.95 g/m*3 14.8 C 0 km/h
2 22-04-2009 00:18:46 14.7 C 6.04 g/m*3 14.7 C 0 km/h
3 22-04-2009 00:30:46 14.6 C 5.88 g/m*3 14.6 C 0 km/h
4 22-04-2009 00:42:47 14.5 C 5.97 g/m*3 14.5 C 0 km/h
5 22-04-2009 00:54:47 14.1 C 5.83 g/m*3 14.1 C 0 km/h
6 22-04-2009 01:06:47 13.9 C 5.99 g/m*3 13.9 C 0 km/h
7 22-04-2009 01:18:47 13.7 C 6.04 g/m*3 13.7 C 0 km/h
8 22-04-2009 01:30:47 13.2 C 6.09 g/m*3 13.2 C 0 km/h
9 22-04-2009 01:42:47 13.1 C 6.28 g/m*3 13.1 C 0 km/h
10 22-04-2009 01:54:47 13 C 6.01 g/m*3 13 C 0 km/h
11 22-04-2009 02:06:47 13 C 6.12 g/m*3 13 C 0 km/h
12 22-04-2009 02:18:47 12.8 C 6.16 g/m*3 12.8 C 0 km/h
13 22-04-2009 02:30:47 12.6 C 6.2 g/m*3 12.6 C 0 km/h
14 22-04-2009 02:42:47 12.3 C 6.19 g/m*3 12.3 C 0 km/h
15 22-04-2009 02:54:47 12.1 C 6.22 g/m*3 12.1 C 0 km/h
16 22-04-2009 03:06:47 11.8 C 6.31 g/m*3 11.8 C 0 km/h
17 22-04-2009 03:18:47 11.7 C 6.28 g/m*3 11.7 C 0 km/h
18 22-04-2009 03:30:47 11.8 C 6.21 g/m*3 11.8 C 0 km/h
19 22-04-2009 03:42:47 11.7 C 6.17 g/m*3 11.7 C 0 km/h
20 22-04-2009 03:54:47 11.3 C 6.12 g/m*3 11.3 C 0 km/h
21 22-04-2009 04:06:47 11 C 6.01 g/m*3 11 C 0 km/h
22 22-04-2009 04:18:47 10.9 C 5.97 g/m*3 10.9 C 0 km/h
23 22-04-2009 04:30:48 10.8 C 5.93 g/m*3 10.8 C 0 km/h
24 22-04-2009 04:42:48 10.7 C 5.99 g/m*3 10.7 C 0 km/h
25 22-04-2009 04:54:48 10.5 C 6.01 g/m*3 10.5 C 0 km/h
Sensor: Nr:Datum:Temp:Abs-Feuchte:Windchill:Wind:
Aussen-T/F 26 22-04-2009 05:06:48 10.7 C 6.09 g/m*3 10.7 C 0 km/h
27 22-04-2009 05:18:48 10.6 C 6.05 g/m*3 10.6 C 0 km/h
28 22-04-2009 05:30:48 10.3 C 6.13 g/m*3 10.3 C 0 km/h
29 22-04-2009 05:42:48 10 C 6.11 g/m*3 10 C 0 km/h
30 22-04-2009 05:54:48 9.9 C 6.26 g/m*3 9.9 C 0 km/h
31 22-04-2009 06:06:48 9.9 C 6.44 g/m*3 9.9 C 0 km/h
32 22-04-2009 06:18:48 9.7 C 6.45 g/m*3 9.7 C 0 km/h
33 22-04-2009 06:30:48 9.6 C 6.5 g/m*3 9.6 C 0 km/h
34 22-04-2009 06:42:48 9.6 C 6.69 g/m*3 9.6 C 0 km/h
35 22-04-2009 06:54:48 9.6 C 6.69 g/m*3 9.6 C 0 km/h
36 22-04-2009 07:06:48 9.7 C 6.82 g/m*3 9.7 C 0 km/h
37 22-04-2009 07:18:48 9.7 C 6.82 g/m*3 9.7 C 0 km/h
38 22-04-2009 07:30:48 9.8 C 6.87 g/m*3 9.8 C 0 km/h
39 22-04-2009 07:42:48 9.9 C 6.91 g/m*3 9.9 C 0 km/h
40 22-04-2009 07:54:46 10.1 C 7 g/m*3 10.1 C 0 km/h
41 22-04-2009 08:06:46 10.3 C 6.99 g/m*3 10.3 C 0 km/h
42 22-04-2009 08:18:47 10.4 C 6.84 g/m*3 10.4 C 0 km/h
43 22-04-2009 08:30:46 10.5 C 6.89 g/m*3 10.5 C 0 km/h
44 22-04-2009 08:42:46 10.5 C 6.79 g/m*3 10.5 C 0 km/h
45 22-04-2009 08:54:46 10.6 C 6.73 g/m*3 10.6 C 0 km/h
46 22-04-2009 09:06:46 10.7 C 6.68 g/m*3 10.7 C 0 km/h
47 22-04-2009 09:18:46 11 C 6.71 g/m*3 11 C 0 km/h
48 22-04-2009 09:30:45 11.2 C 6.69 g/m*3 11.2 C 0 km/h
49 22-04-2009 09:42:45 10.7 C 6.38 g/m*3 10.7 C 0 km/h
50 22-04-2009 09:54:46 11.2 C 6.49 g/m*3 11.2 C 0 km/h
Sensor: Nr:Datum:Temp:Abs-Feuchte:Windchill:Wind:
Aussen-T/F 51 22-04-2009 10:06:45 11.4 C 5.95 g/m*3 11.4 C 0 km/h
52 22-04-2009 10:18:45 11.8 C 5.79 g/m*3 11.8 C 0 km/h
53 22-04-2009 10:30:45 11.8 C 5.89 g/m*3 11.8 C 0 km/h
54 22-04-2009 10:42:45 12.4 C 6.01 g/m*3 12.4 C 0 km/h
55 22-04-2009 10:54:45 12.9 C 5.64 g/m*3 12.9 C 0 km/h
56 22-04-2009 11:06:45 13.1 C 5.59 g/m*3 13.1 C 0 km/h
57 22-04-2009 11:18:44 13.3 C 5.66 g/m*3 13.3 C 0 km/h
58 22-04-2009 11:30:45 14 C 5.67 g/m*3 14 C 0 km/h
59 22-04-2009 11:42:45 14.6 C 5.51 g/m*3 14.6 C 0 km/h
60 22-04-2009 11:54:44 15 C 5.39 g/m*3 15 C 0 km/h
61 22-04-2009 12:06:44 15.7 C 5.62 g/m*3 15.7 C 0 km/h
62 22-04-2009 12:18:44 16.1 C 5.76 g/m*3 16.1 C 0 km/h
63 22-04-2009 12:30:44 15.7 C 5.62 g/m*3 15.7 C 0 km/h
64 22-04-2009 12:42:44 16 C 5.59 g/m*3 16 C 0 km/h
65 22-04-2009 12:54:43 16.2 C 5.52 g/m*3 16.2 C 0 km/h
66 22-04-2009 13:06:44 17.1 C 5.68 g/m*3 17.1 C 0 km/h
67 22-04-2009 13:18:43 17.5 C 5.96 g/m*3 17.5 C 0 km/h
68 22-04-2009 13:30:43 16.7 C 5.4 g/m*3 16.7 C 0 km/h
69 22-04-2009 13:42:43 17.2 C 5.56 g/m*3 17.2 C 0 km/h
70 22-04-2009 13:54:43 17 C 5.35 g/m*3 17 C 0 km/h
71 22-04-2009 14:06:43 16.6 C 5.51 g/m*3 16.6 C 0 km/h
72 22-04-2009 14:18:43 17.2 C 5.42 g/m*3 17.2 C 0 km/h
73 22-04-2009 14:30:42 17.8 C 5.46 g/m*3 17.8 C 0 km/h
74 22-04-2009 14:42:42 16.8 C 5.15 g/m*3 16.8 C 0 km/h
75 22-04-2009 14:54:43 17.4 C 5.48 g/m*3 17.4 C 0 km/h
Sensor: Nr:Datum:Temp:Abs-Feuchte:Windchill:Wind:
Aussen-T/F 76 22-04-2009 15:06:42 16.9 C 5.03 g/m*3 16.9 C 0 km/h
77 22-04-2009 15:18:42 17.5 C 4.92 g/m*3 17.5 C 0 km/h
78 22-04-2009 15:30:42 17.1 C 4.8 g/m*3 17.1 C 0 km/h
79 22-04-2009 15:42:42 16.4 C 5.02 g/m*3 16.4 C 0 km/h
80 22-04-2009 15:54:42 16.7 C 5.12 g/m*3 16.7 C 0 km/h
81 22-04-2009 16:06:42 18 C 4.15 g/m*3 18 C 0 km/h
82 22-04-2009 16:18:41 18 C 3.38 g/m*3 18 C 0 km/h
83 22-04-2009 16:30:42 17.9 C 3.05 g/m*3 17.9 C 0 km/h
84 22-04-2009 16:42:42 18.2 C 3.11 g/m*3 18.2 C 0 km/h
85 22-04-2009 16:54:41 19.1 C 3.28 g/m*3 19.1 C 0 km/h
86 22-04-2009 17:06:41 18.4 C 3.15 g/m*3 18.4 C 0 km/h
87 22-04-2009 17:18:41 18.5 C 3.16 g/m*3 18.5 C 0 km/h
88 22-04-2009 17:30:41 19.6 C 3.38 g/m*3 19.6 C 0 km/h
89 22-04-2009 17:42:41 19 C 3.26 g/m*3 19 C 0 km/h
90 22-04-2009 17:54:41 19 C 3.26 g/m*3 19 C 0 km/h
91 22-04-2009 18:06:41 17.8 C 3.79 g/m*3 17.8 C 0 km/h
92 22-04-2009 18:18:40 18 C 3.84 g/m*3 18 C 0 km/h
93 22-04-2009 18:30:40 17.8 C 3.95 g/m*3 17.8 C 0 km/h
94 22-04-2009 18:42:40 17.1 C 3.93 g/m*3 17.1 C 0 km/h
95 22-04-2009 18:54:40 17.7 C 3.92 g/m*3 17.7 C 0 km/h
96 22-04-2009 19:06:40 17.4 C 4 g/m*3 17.4 C 0 km/h
97 22-04-2009 19:18:40 16.5 C 4.21 g/m*3 16.5 C 0 km/h
98 22-04-2009 19:30:40 16.1 C 4.11 g/m*3 16.1 C 0 km/h
99 22-04-2009 19:42:40 16.6 C 4.38 g/m*3 16.6 C 0 km/h
100 22-04-2009 19:54:39 16.5 C 4.21 g/m*3 16.5 C 0 km/h
Sensor: Nr:Datum:Temp:Abs-Feuchte:Windchill:Wind:
Aussen-T/F 101 22-04-2009 20:06:39 16.4 C 3.91 g/m*3 16.4 C 0 km/h
102 22-04-2009 20:18:40 15.6 C 3.59 g/m*3 15.6 C 0 km/h
103 22-04-2009 20:30:39 14.8 C 3.8 g/m*3 14.8 C 0 km/h
104 22-04-2009 20:42:39 14.2 C 3.66 g/m*3 14.2 C 0 km/h
105 22-04-2009 20:54:39 13.8 C 3.57 g/m*3 13.8 C 0 km/h
106 22-04-2009 21:06:39 13.3 C 3.47 g/m*3 13.3 C 0 km/h
107 22-04-2009 21:18:39 13 C 3.4 g/m*3 13 C 0 km/h
108 22-04-2009 21:30:39 12.7 C 3.67 g/m*3 12.7 C 0 km/h
109 22-04-2009 21:42:39 12.4 C 3.61 g/m*3 12.4 C 0 km/h
110 22-04-2009 21:54:38 12.1 C 3.54 g/m*3 12.1 C 0 km/h
111 22-04-2009 22:06:39 12 C 3.62 g/m*3 12 C 0 km/h
112 22-04-2009 22:19:39 11.9 C 3.71 g/m*3 11.9 C 0 km/h
113 22-04-2009 22:31:39 11.7 C 3.77 g/m*3 11.7 C 0 km/h
114 22-04-2009 22:43:39 11.4 C 3.8 g/m*3 11.4 C 0 km/h
115 22-04-2009 22:55:39 11.3 C 3.88 g/m*3 11.3 C 0 km/h
116 22-04-2009 23:07:39 11 C 3.9 g/m*3 11 C 0 km/h
117 22-04-2009 23:19:39 10.8 C 4.05 g/m*3 10.8 C 0 km/h
118 22-04-2009 23:31:39 10.2 C 4 g/m*3 10.2 C 0 km/h
119 22-04-2009 23:43:39 10.1 C 4.16 g/m*3 10.1 C 0 km/h
120 22-04-2009 23:55:39 10 C 4.23 g/m*3 10 C 0 km/h
121 23-04-2009 00:07:39 9.7 C 4.24 g/m*3 9.7 C 0 km/h
122 23-04-2009 00:19:39 9.5 C 4.28 g/m*3 9.5 C 0 km/h
123 23-04-2009 00:31:39 9.2 C 4.46 g/m*3 9.2 C 0 km/h
124 23-04-2009 00:43:39 8.9 C 4.47 g/m*3 8.9 C 0 km/h
125 23-04-2009 00:55:39 8.6 C 4.73 g/m*3 8.6 C 0 km/h
Sensor: Nr:Datum:Temp:Abs-Feuchte:Windchill:Wind:
Aussen-T/F 126 23-04-2009 01:07:39 8.5 C 4.7 g/m*3 8.5 C 0 km/h
127 23-04-2009 01:19:39 8.4 C 4.67 g/m*3 8.4 C 0 km/h
128 23-04-2009 01:31:39 8.1 C 4.66 g/m*3 8.1 C 0 km/h
129 23-04-2009 01:43:39 8.1 C 4.66 g/m*3 8.1 C 0 km/h
130 23-04-2009 01:55:39 7.8 C 4.82 g/m*3 7.8 C 0 km/h
131 23-04-2009 02:07:39 7.7 C 4.7 g/m*3 7.7 C 0 km/h
132 23-04-2009 02:19:40 7.4 C 4.85 g/m*3 7.4 C 0 km/h
133 23-04-2009 02:31:40 7.6 C 4.83 g/m*3 7.6 C 0 km/h
134 23-04-2009 02:43:40 7.7 C 4.87 g/m*3 7.7 C 0 km/h
135 23-04-2009 02:55:40 7.3 C 4.98 g/m*3 7.3 C 0 km/h
136 23-04-2009 03:07:40 7.1 C 4.91 g/m*3 7.1 C 0 km/h
137 23-04-2009 03:19:40 7.1 C 4.91 g/m*3 7.1 C 0 km/h
138 23-04-2009 03:31:40 7.1 C 4.91 g/m*3 7.1 C 0 km/h
139 23-04-2009 03:43:40 7 C 4.96 g/m*3 7 C 0 km/h
140 23-04-2009 03:55:40 6.9 C 5.08 g/m*3 6.9 C 0 km/h
141 23-04-2009 04:07:40 6.6 C 5.06 g/m*3 6.6 C 0 km/h
142 23-04-2009 04:19:40 6.2 C 5.15 g/m*3 6.2 C 0 km/h
143 23-04-2009 04:31:40 6.3 C 5.33 g/m*3 6.3 C 0 km/h
144 23-04-2009 04:43:40 6.3 C 5.4 g/m*3 6.3 C 0 km/h
145 23-04-2009 04:55:40 6.5 C 5.47 g/m*3 6.5 C 0 km/h
146 23-04-2009 05:07:40 6.7 C 5.47 g/m*3 6.7 C 0 km/h
147 23-04-2009 05:19:40 6.5 C 5.47 g/m*3 6.5 C 0 km/h
148 23-04-2009 05:31:40 6.5 C 5.55 g/m*3 6.5 C 0 km/h
149 23-04-2009 05:43:40 6.8 C 5.66 g/m*3 6.8 C 0 km/h
150 23-04-2009 05:55:40 6.8 C 5.58 g/m*3 6.8 C 0 km/h
Sensor: Nr:Datum:Temp:Abs-Feuchte:Windchill:Wind:
Aussen-T/F 151 23-04-2009 06:07:41 6.8 C 5.66 g/m*3 6.8 C 0 km/h
152 23-04-2009 06:19:41 7 C 5.66 g/m*3 7 C 0 km/h
153 23-04-2009 06:31:41 7 C 5.66 g/m*3 7 C 0 km/h
154 23-04-2009 06:43:41 6.9 C 5.62 g/m*3 6.9 C 0 km/h
155 23-04-2009 06:55:41 7 C 5.66 g/m*3 7 C 0 km/h
156 23-04-2009 07:07:39 7.1 C 5.69 g/m*3 7.1 C 0 km/h
157 23-04-2009 07:19:39 7 C 5.66 g/m*3 7 C 0 km/h
158 23-04-2009 07:31:38 7.1 C 5.77 g/m*3 7.1 C 0 km/h
159 23-04-2009 07:43:38 7.1 C 5.69 g/m*3 7.1 C 0 km/h
160 23-04-2009 07:55:39 7.4 C 5.81 g/m*3 7.4 C 0 km/h
161 23-04-2009 08:07:38 7.7 C 5.84 g/m*3 7.7 C 0 km/h
162 23-04-2009 08:19:38 7.9 C 5.83 g/m*3 7.9 C 0 km/h
163 23-04-2009 08:31:38 8.4 C 5.94 g/m*3 8.4 C 0 km/h
164 23-04-2009 08:43:38 8.5 C 5.89 g/m*3 8.5 C 0 km/h
165 23-04-2009 08:55:38 8.6 C 5.93 g/m*3 8.6 C 0 km/h
166 23-04-2009 09:07:38 9 C 5.82 g/m*3 9 C 0 km/h
167 23-04-2009 09:19:37 9.5 C 5.92 g/m*3 9.5 C 0 km/h
168 23-04-2009 09:31:37 9.8 C 5.85 g/m*3 9.8 C 0 km/h
169 23-04-2009 09:43:37 10.3 C 5.75 g/m*3 10.3 C 0 km/h
170 23-04-2009 09:55:37 11 C 5.81 g/m*3 11 C 0 km/h
171 23-04-2009 10:07:37 11.5 C 5.58 g/m*3 11.5 C 0 km/h
172 23-04-2009 10:19:37 11.7 C 5.33 g/m*3 11.7 C 0 km/h
173 23-04-2009 10:31:37 11.1 C 5.24 g/m*3 11.1 C 0 km/h
174 23-04-2009 10:43:37 10.8 C 5.24 g/m*3 10.8 C 0 km/h
175 23-04-2009 10:55:36 10.9 C 5.07 g/m*3 10.9 C 0 km/h
Sensor: Nr:Datum:Temp:Abs-Feuchte:Windchill:Wind:
Aussen-T/F 176 23-04-2009 11:07:36 11.2 C 5.07 g/m*3 11.2 C 0 km/h
177 23-04-2009 11:19:37 11.9 C 5.3 g/m*3 11.9 C 0 km/h
178 23-04-2009 11:31:36 12 C 4.9 g/m*3 12 C 0 km/h
179 23-04-2009 11:43:36 11.6 C 4.57 g/m*3 11.6 C 0 km/h
180 23-04-2009 11:55:36 12.7 C 4.79 g/m*3 12.7 C 0 km/h
181 23-04-2009 12:07:36 13.9 C 4.2 g/m*3 13.9 C 0 km/h
182 23-04-2009 12:19:36 13.3 C 4.39 g/m*3 13.3 C 0 km/h
183 23-04-2009 12:31:36 13.1 C 4.11 g/m*3 13.1 C 0 km/h
184 23-04-2009 12:43:36 14 C 4.34 g/m*3 14 C 0 km/h
185 23-04-2009 12:55:35 14 C 4.22 g/m*3 14 C 0 km/h
186 23-04-2009 13:07:36 14.1 C 4.37 g/m*3 14.1 C 0 km/h
187 23-04-2009 13:19:35 16 C 4.09 g/m*3 16 C 0 km/h
188 23-04-2009 13:31:35 15.2 C 4.15 g/m*3 15.2 C 0 km/h
189 23-04-2009 13:43:35 16.2 C 4.27 g/m*3 16.2 C 0 km/h
190 23-04-2009 13:55:35 16.9 C 4.46 g/m*3 16.9 C 0 km/h
191 23-04-2009 14:07:35 15 C 4.23 g/m*3 15 C 0 km/h
192 23-04-2009 14:19:34 15 C 4.49 g/m*3 15 C 0 km/h
193 23-04-2009 14:31:35 15 C 4.23 g/m*3 15 C 0 km/h
194 23-04-2009 14:43:36 15.2 C 4.54 g/m*3 15.2 C 0 km/h
195 23-04-2009 14:55:34 16.7 C 4.69 g/m*3 16.7 C 0 km/h
196 23-04-2009 15:07:34 17.9 C 4.43 g/m*3 17.9 C 0 km/h
197 23-04-2009 15:19:34 18.5 C 3.64 g/m*3 18.5 C 0 km/h
198 23-04-2009 15:31:34 17.5 C 3.88 g/m*3 17.5 C 0 km/h
199 23-04-2009 15:43:34 18 C 3.84 g/m*3 18 C 0 km/h
200 23-04-2009 15:55:33 18.1 C 3.55 g/m*3 18.1 C 0 km/h
Sensor: Nr:Datum:Temp:Abs-Feuchte:Windchill:Wind:
Aussen-T/F 201 23-04-2009 16:07:33 16.6 C 3.81 g/m*3 16.6 C 0 km/h
202 23-04-2009 16:19:34 17.7 C 3.92 g/m*3 17.7 C 0 km/h
203 23-04-2009 16:31:33 18.1 C 3.71 g/m*3 18.1 C 0 km/h
204 23-04-2009 16:43:33 19.5 C 3.86 g/m*3 19.5 C 0 km/h
205 23-04-2009 16:55:33 18.1 C 3.4 g/m*3 18.1 C 0 km/h
206 23-04-2009 17:07:33 20.1 C 3.65 g/m*3 20.1 C 0 km/h
207 23-04-2009 17:19:33 20.4 C 3.71 g/m*3 20.4 C 0 km/h
208 23-04-2009 17:31:32 19.7 C 3.57 g/m*3 19.7 C 0 km/h
209 23-04-2009 17:43:32 18.6 C 3.82 g/m*3 18.6 C 0 km/h
210 23-04-2009 17:55:33 18.1 C 4.02 g/m*3 18.1 C 0 km/h
211 23-04-2009 18:07:32 17.7 C 4.07 g/m*3 17.7 C 0 km/h
212 23-04-2009 18:19:32 17.7 C 4.07 g/m*3 17.7 C 0 km/h
213 23-04-2009 18:31:32 17.4 C 4.15 g/m*3 17.4 C 0 km/h
214 23-04-2009 18:43:32 17.1 C 4.08 g/m*3 17.1 C 0 km/h
215 23-04-2009 18:55:32 16.9 C 4.31 g/m*3 16.9 C 0 km/h
216 23-04-2009 19:07:32 17.9 C 4.12 g/m*3 17.9 C 0 km/h
217 23-04-2009 19:19:31 18.1 C 4.17 g/m*3 18.1 C 0 km/h
218 23-04-2009 19:31:32 16.6 C 4.1 g/m*3 16.6 C 0 km/h
219 23-04-2009 19:43:33 15.4 C 4.2 g/m*3 15.4 C 0 km/h
220 23-04-2009 19:55:31 14.3 C 4.55 g/m*3 14.3 C 0 km/h
221 23-04-2009 20:07:31 14 C 4.58 g/m*3 14 C 0 km/h
222 23-04-2009 20:19:31 13.5 C 4.68 g/m*3 13.5 C 0 km/h
223 23-04-2009 20:31:31 13.4 C 4.65 g/m*3 13.4 C 0 km/h
224 23-04-2009 20:43:31 13.2 C 4.59 g/m*3 13.2 C 0 km/h
225 23-04-2009 20:55:30 12.6 C 4.76 g/m*3 12.6 C 0 km/h
Sensor: Nr:Datum:Temp:Abs-Feuchte:Windchill:Wind:
Aussen-T/F 226 23-04-2009 21:07:31 12.2 C 4.75 g/m*3 12.2 C 0 km/h
227 23-04-2009 21:19:30 12.1 C 4.93 g/m*3 12.1 C 0 km/h
228 23-04-2009 21:31:31 11.8 C 5.16 g/m*3 11.8 C 0 km/h
229 23-04-2009 21:43:32 11.7 C 5.23 g/m*3 11.7 C 0 km/h
230 23-04-2009 21:55:30 11.2 C 5.17 g/m*3 11.2 C 0 km/h
231 23-04-2009 22:07:30 11.2 C 5.27 g/m*3 11.2 C 0 km/h
232 23-04-2009 22:19:30 11 C 5.2 g/m*3 11 C 0 km/h
233 23-04-2009 22:32:31 10.5 C 5.24 g/m*3 10.5 C 0 km/h
234 23-04-2009 22:44:31 10.4 C 5.4 g/m*3 10.4 C 0 km/h
235 23-04-2009 22:56:31 10.1 C 5.39 g/m*3 10.1 C 0 km/h
236 23-04-2009 23:08:32 9.9 C 5.51 g/m*3 9.9 C 0 km/h
237 23-04-2009 23:20:32 9.6 C 5.5 g/m*3 9.6 C 0 km/h
238 23-04-2009 23:32:32 9.5 C 5.55 g/m*3 9.5 C 0 km/h
239 23-04-2009 23:44:32 9.3 C 5.57 g/m*3 9.3 C 0 km/h
240 23-04-2009 23:56:32 9.2 C 5.63 g/m*3 9.2 C 0 km/h
241 24-04-2009 00:08:32 9 C 5.64 g/m*3 9 C 0 km/h
242 24-04-2009 00:20:32 8.7 C 5.62 g/m*3 8.7 C 0 km/h
243 24-04-2009 00:32:32 8.6 C 5.67 g/m*3 8.6 C 0 km/h
244 24-04-2009 00:44:32 8.5 C 5.72 g/m*3 8.5 C 0 km/h
245 24-04-2009 00:56:32 8.3 C 5.82 g/m*3 8.3 C 0 km/h
246 24-04-2009 01:08:32 8.1 C 5.74 g/m*3 8.1 C 0 km/h
247 24-04-2009 01:20:32 7.9 C 5.75 g/m*3 7.9 C 0 km/h
248 24-04-2009 01:32:32 8.1 C 5.82 g/m*3 8.1 C 0 km/h
249 24-04-2009 01:44:32 8.3 C 5.98 g/m*3 8.3 C 0 km/h
250 24-04-2009 01:56:32 8.2 C 6.03 g/m*3 8.2 C 0 km/h
Sensor: Nr:Datum:Temp:Abs-Feuchte:Windchill:Wind:
Aussen-T/F 251 24-04-2009 02:08:32 8.1 C 5.91 g/m*3 8.1 C 0 km/h
252 24-04-2009 02:20:32 8.1 C 5.99 g/m*3 8.1 C 0 km/h
253 24-04-2009 02:32:32 8.2 C 5.95 g/m*3 8.2 C 0 km/h
254 24-04-2009 02:44:32 7.9 C 5.91 g/m*3 7.9 C 0 km/h
255 24-04-2009 02:56:33 7.9 C 6 g/m*3 7.9 C 0 km/h
256 24-04-2009 03:08:33 8 C 5.95 g/m*3 8 C 0 km/h
257 24-04-2009 03:20:33 7.7 C 5.92 g/m*3 7.7 C 0 km/h
258 24-04-2009 03:32:33 7.3 C 5.85 g/m*3 7.3 C 0 km/h
259 24-04-2009 03:44:33 7 C 5.97 g/m*3 7 C 0 km/h
260 24-04-2009 03:56:33 6.6 C 5.96 g/m*3 6.6 C 0 km/h
261 24-04-2009 04:08:33 6.5 C 5.92 g/m*3 6.5 C 0 km/h
262 24-04-2009 04:20:33 6.4 C 5.96 g/m*3 6.4 C 0 km/h
263 24-04-2009 04:32:33 6.7 C 6.23 g/m*3 6.7 C 0 km/h
264 24-04-2009 04:44:33 6.9 C 6.24 g/m*3 6.9 C 0 km/h
265 24-04-2009 04:56:33 7 C 6.2 g/m*3 7 C 0 km/h
266 24-04-2009 05:08:33 6.9 C 6.24 g/m*3 6.9 C 0 km/h
267 24-04-2009 05:20:33 7 C 6.12 g/m*3 7 C 0 km/h
268 24-04-2009 05:32:33 7 C 6.12 g/m*3 7 C 0 km/h
269 24-04-2009 05:44:33 7.2 C 6.12 g/m*3 7.2 C 0 km/h
270 24-04-2009 05:56:33 7.1 C 6.01 g/m*3 7.1 C 0 km/h
271 24-04-2009 06:08:33 7 C 5.97 g/m*3 7 C 0 km/h
272 24-04-2009 06:20:33 7 C 5.97 g/m*3 7 C 0 km/h
273 24-04-2009 06:32:31 6.8 C 6.04 g/m*3 6.8 C 0 km/h
274 24-04-2009 06:44:31 6.9 C 6.08 g/m*3 6.9 C 0 km/h
275 24-04-2009 06:56:31 6.9 C 6 g/m*3 6.9 C 0 km/h
Sensor: Nr:Datum:Temp:Abs-Feuchte:Windchill:Wind:
Aussen-T/F 276 24-04-2009 07:08:31 6.9 C 6 g/m*3 6.9 C 0 km/h
277 24-04-2009 07:20:30 6.9 C 6 g/m*3 6.9 C 0 km/h
278 24-04-2009 07:32:31 7 C 6.04 g/m*3 7 C 0 km/h
279 24-04-2009 07:44:30 7.1 C 6.08 g/m*3 7.1 C 0 km/h
280 24-04-2009 07:56:30 7.3 C 6.16 g/m*3 7.3 C 0 km/h
281 24-04-2009 08:08:30 7.4 C 6.2 g/m*3 7.4 C 0 km/h
282 24-04-2009 08:20:30 7.6 C 6.2 g/m*3 7.6 C 0 km/h
283 24-04-2009 08:32:30 7.9 C 6.32 g/m*3 7.9 C 0 km/h
284 24-04-2009 08:44:29 8.1 C 6.16 g/m*3 8.1 C 0 km/h
285 24-04-2009 08:56:29 8.3 C 6.15 g/m*3 8.3 C 0 km/h
286 24-04-2009 09:08:29 8.7 C 6.23 g/m*3 8.7 C 0 km/h
287 24-04-2009 09:20:30 9.1 C 6.03 g/m*3 9.1 C 0 km/h
288 24-04-2009 09:32:29 9.5 C 6.01 g/m*3 9.5 C 0 km/h
289 24-04-2009 09:44:29 9.9 C 5.98 g/m*3 9.9 C 0 km/h
290 24-04-2009 09:56:29 10.4 C 5.98 g/m*3 10.4 C 0 km/h
291 24-04-2009 10:08:29 10.8 C 5.83 g/m*3 10.8 C 0 km/h
292 24-04-2009 10:20:29 11.3 C 5.81 g/m*3 11.3 C 0 km/h
293 24-04-2009 10:32:29 11.8 C 5.79 g/m*3 11.8 C 0 km/h
294 24-04-2009 10:44:29 12.4 C 5.68 g/m*3 12.4 C 0 km/h
295 24-04-2009 10:56:29 13 C 5.44 g/m*3 13 C 0 km/h
296 24-04-2009 11:08:29 13.3 C 5.31 g/m*3 13.3 C 0 km/h
297 24-04-2009 11:20:28 13.8 C 5.36 g/m*3 13.8 C 0 km/h
298 24-04-2009 11:32:28 14.3 C 5.41 g/m*3 14.3 C 0 km/h
299 24-04-2009 11:44:28 14.8 C 5.32 g/m*3 14.8 C 0 km/h
300 24-04-2009 11:56:28 15.3 C 5.09 g/m*3 15.3 C 0 km/h
Sensor: Nr:Datum:Temp:Abs-Feuchte:Windchill:Wind:
Aussen-T/F 301 24-04-2009 12:08:28 15.5 C 5.02 g/m*3 15.5 C 0 km/h
302 24-04-2009 12:20:27 15.6 C 4.79 g/m*3 15.6 C 0 km/h
303 24-04-2009 12:32:28 16.2 C 4.83 g/m*3 16.2 C 0 km/h
304 24-04-2009 12:44:27 16.8 C 4.72 g/m*3 16.8 C 0 km/h
305 24-04-2009 12:56:27 17.4 C 4.45 g/m*3 17.4 C 0 km/h
306 24-04-2009 13:08:27 18.3 C 3.91 g/m*3 18.3 C 0 km/h
307 24-04-2009 13:20:28 19.2 C 3.3 g/m*3 19.2 C 0 km/h
308 24-04-2009 13:32:27 19.6 C 3.38 g/m*3 19.6 C 0 km/h
309 24-04-2009 13:44:27 19.6 C 3.38 g/m*3 19.6 C 0 km/h
310 24-04-2009 13:56:27 19.5 C 3.36 g/m*3 19.5 C 0 km/h
311 24-04-2009 14:08:27 19.9 C 3.44 g/m*3 19.9 C 0 km/h
312 24-04-2009 14:20:27 20.6 C 3.58 g/m*3 20.6 C 0 km/h
313 24-04-2009 14:32:26 21 C 3.66 g/m*3 21 C 0 km/h
314 24-04-2009 14:44:26 20.8 C 3.62 g/m*3 20.8 C 0 km/h
315 24-04-2009 14:56:26 21 C 3.66 g/m*3 21 C 0 km/h
316 24-04-2009 15:08:26 21.8 C 3.84 g/m*3 21.8 C 0 km/h
317 24-04-2009 15:20:26 22.3 C 3.95 g/m*3 22.3 C 0 km/h
318 24-04-2009 15:32:26 22.8 C 4.06 g/m*3 22.8 C 0 km/h
319 24-04-2009 15:44:26 22.9 C 4.09 g/m*3 22.9 C 0 km/h
320 24-04-2009 15:56:26 23.7 C 4.28 g/m*3 23.7 C 0 km/h
321 24-04-2009 16:08:26 23.1 C 4.13 g/m*3 23.1 C 0 km/h
322 24-04-2009 16:20:25 24.2 C 4.4 g/m*3 24.2 C 0 km/h
323 24-04-2009 16:32:25 24 C 4.35 g/m*3 24 C 0 km/h
324 24-04-2009 16:44:25 24.4 C 4.45 g/m*3 24.4 C 0 km/h
325 24-04-2009 16:56:25 23.6 C 4.25 g/m*3 23.6 C 0 km/h
Sensor: Nr:Datum:Temp:Abs-Feuchte:Windchill:Wind:
Aussen-T/F 326 24-04-2009 17:08:25 23.6 C 4.25 g/m*3 23.6 C 0 km/h
327 24-04-2009 17:20:24 24.1 C 4.38 g/m*3 24.1 C 0 km/h
328 24-04-2009 17:32:25 24.2 C 4.4 g/m*3 24.2 C 0 km/h
329 24-04-2009 17:44:24 24.4 C 4.45 g/m*3 24.4 C 0 km/h
330 24-04-2009 17:56:24 24.5 C 4.48 g/m*3 24.5 C 0 km/h
331 24-04-2009 18:08:24 24.8 C 4.55 g/m*3 24.8 C 0 km/h
332 24-04-2009 18:20:25 24.2 C 4.4 g/m*3 24.2 C 0 km/h
333 24-04-2009 18:32:24 24.2 C 4.4 g/m*3 24.2 C 0 km/h
334 24-04-2009 18:44:24 24.5 C 4.48 g/m*3 24.5 C 0 km/h
335 24-04-2009 18:56:24 24.4 C 4.45 g/m*3 24.4 C 0 km/h
336 24-04-2009 19:08:24 24.1 C 4.38 g/m*3 24.1 C 0 km/h
337 24-04-2009 19:20:24 24.1 C 4.38 g/m*3 24.1 C 0 km/h
338 24-04-2009 19:32:23 22.9 C 4.09 g/m*3 22.9 C 0 km/h
339 24-04-2009 19:44:24 22.7 C 4.04 g/m*3 22.7 C 0 km/h
340 24-04-2009 19:56:24 22.2 C 4.32 g/m*3 22.2 C 0 km/h
341 24-04-2009 20:08:23 20.9 C 4.55 g/m*3 20.9 C 0 km/h
342 24-04-2009 20:20:23 19.6 C 4.9 g/m*3 19.6 C 0 km/h
343 24-04-2009 20:32:23 18.4 C 4.88 g/m*3 18.4 C 0 km/h
344 24-04-2009 20:44:23 17.3 C 4.86 g/m*3 17.3 C 0 km/h
345 24-04-2009 20:56:23 16.6 C 4.94 g/m*3 16.6 C 0 km/h
346 24-04-2009 21:08:23 15.9 C 5.01 g/m*3 15.9 C 0 km/h
347 24-04-2009 21:20:23 15.4 C 4.99 g/m*3 15.4 C 0 km/h
348 24-04-2009 21:32:22 15.1 C 5.16 g/m*3 15.1 C 0 km/h
349 24-04-2009 21:44:22 15 C 5.13 g/m*3 15 C 0 km/h
350 24-04-2009 21:56:22 14.8 C 5.19 g/m*3 14.8 C 0 km/h
Sensor: Nr:Datum:Temp:Abs-Feuchte:Windchill:Wind:
Aussen-T/F 351 24-04-2009 22:09:22 14.5 C 5.22 g/m*3 14.5 C 0 km/h
352 24-04-2009 22:21:22 14.2 C 5.25 g/m*3 14.2 C 0 km/h
353 24-04-2009 22:33:22 14.1 C 5.46 g/m*3 14.1 C 0 km/h
354 24-04-2009 22:45:23 14 C 5.31 g/m*3 14 C 0 km/h
355 24-04-2009 22:57:23 13.7 C 5.33 g/m*3 13.7 C 0 km/h
356 24-04-2009 23:09:23 13.3 C 5.43 g/m*3 13.3 C 0 km/h
357 24-04-2009 23:21:23 13.1 C 5.48 g/m*3 13.1 C 0 km/h
358 24-04-2009 23:33:23 13.1 C 5.71 g/m*3 13.1 C 0 km/h
359 24-04-2009 23:45:23 12.8 C 5.82 g/m*3 12.8 C 0 km/h
360 24-04-2009 23:57:23 12.4 C 5.79 g/m*3 12.4 C 0 km/h

Legende:
   Min
   Max


Maximal/Minimal-Werte vom 22.04.2009 - 24.04.2009

Sensor Min Max Avg
Temp
(Aussen-T/F)
6.2 °C
23-04-2009  04:19:40
24.8 °C
24-04-2009  18:08:24
13.15 °C
Abs-Feuchte
(Aussen-T/F)
3.05 g/m*3
22-04-2009  16:30:42
7 g/m*3
22-04-2009  07:54:46
5.09 g/m*3
Windchill
(Aussen-T/F)
6.2 C
23-04-2009  04:19:40
24.8 C
24-04-2009  18:08:24
13.11 C

Die Daten stammen von einer Davis Vantage Pro 2 Wetter-Station und werden unter Linux mit der Software wview2wettercgi und aufbereitet. Alle Angaben erfolgen ohne Gewähr für ihre Vollständigkeit oder Richtigkeit.
Kontakt: Rainer Krienke krienke@uni-koblenz.de . Meine Webseiten an der Uni Koblenz oder privat.
Version: $Revision: 0.78 $